createdAt,value
2018-09-25T00:00:13.872Z,67.30
2018-09-25T00:02:23.931Z,66.90
2018-09-25T00:04:34.063Z,67.00
2018-09-25T00:06:44.163Z,67.12
2018-09-25T00:08:54.174Z,67.33
2018-09-25T00:11:04.283Z,67.38
2018-09-25T00:13:14.178Z,67.48
2018-09-25T00:15:24.150Z,67.57
2018-09-25T00:17:34.138Z,67.88
2018-09-25T00:19:44.225Z,68.17
2018-09-25T00:21:54.270Z,68.35
2018-09-25T00:24:04.329Z,68.76
2018-09-25T00:26:14.356Z,68.86
2018-09-25T00:28:24.179Z,68.99
2018-09-25T00:30:34.106Z,69.10
2018-09-25T00:32:44.138Z,68.22
2018-09-25T00:34:54.154Z,68.30
2018-09-25T00:37:04.137Z,68.46
2018-09-25T00:39:15.114Z,68.72
2018-09-25T00:41:25.120Z,68.94
2018-09-25T00:43:35.149Z,68.96
2018-09-25T00:45:45.285Z,69.08
2018-09-25T00:47:55.269Z,68.97
2018-09-25T00:50:05.193Z,69.47
2018-09-25T00:52:15.140Z,69.90
2018-09-25T00:54:25.106Z,70.00
2018-09-25T00:56:35.057Z,70.17
2018-09-25T00:58:44.810Z,70.63
2018-09-25T01:00:54.958Z,70.57
2018-09-25T01:03:04.920Z,70.45
2018-09-25T01:05:14.976Z,70.78
2018-09-25T01:07:24.828Z,71.02
2018-09-25T01:09:35.015Z,71.33
2018-09-25T01:11:45.008Z,71.56
2018-09-25T01:13:54.899Z,71.26
2018-09-25T01:16:05.112Z,71.54
2018-09-25T01:18:15.308Z,71.47
2018-09-25T01:20:25.648Z,71.45
2018-09-25T01:22:35.577Z,71.83
2018-09-25T01:24:45.549Z,72.25
2018-09-25T01:26:55.471Z,72.41
2018-09-25T01:29:05.502Z,72.33
2018-09-25T01:31:15.464Z,71.91
2018-09-25T01:33:25.254Z,72.24
2018-09-25T01:35:35.621Z,72.02
2018-09-25T01:37:45.545Z,72.44
2018-09-25T01:39:55.354Z,72.24
2018-09-25T01:42:05.218Z,72.68
2018-09-25T01:46:30.680Z,72.58
2018-09-25T01:48:40.889Z,72.46
2018-09-25T01:50:50.667Z,72.08
2018-09-25T01:53:00.752Z,71.95
2018-09-25T01:55:10.618Z,71.40
2018-09-25T01:57:20.602Z,68.88
2018-09-25T01:59:30.595Z,69.84
2018-09-25T02:01:40.808Z,70.33
2018-09-25T02:03:50.824Z,70.82
2018-09-25T02:06:00.928Z,71.41
2018-09-25T02:08:11.139Z,70.60
2018-09-25T02:10:20.873Z,69.99
2018-09-25T02:12:30.958Z,70.04
2018-09-25T02:14:40.767Z,70.03
2018-09-25T02:16:50.652Z,70.15
2018-09-25T02:19:00.586Z,69.48
2018-09-25T02:21:10.544Z,69.50
2018-09-25T02:23:20.359Z,68.87
2018-09-25T02:25:30.334Z,68.71
2018-09-25T02:27:40.162Z,69.16
2018-09-25T02:29:51.040Z,68.61
2018-09-25T02:32:00.780Z,68.85
2018-09-25T02:34:10.859Z,68.92
2018-09-25T02:36:20.589Z,69.33
2018-09-25T02:38:30.493Z,68.38
2018-09-25T02:40:40.533Z,68.92
2018-09-25T02:42:50.639Z,69.37
2018-09-25T02:45:00.632Z,69.07
2018-09-25T02:47:10.908Z,69.93
2018-09-25T02:49:20.819Z,69.67
2018-09-25T02:51:30.846Z,68.95
2018-09-25T02:53:40.922Z,69.02
2018-09-25T02:55:51.063Z,69.60
2018-09-25T02:58:01.034Z,69.71
2018-09-25T03:00:14.567Z,69.73
2018-09-25T03:02:26.084Z,70.52
2018-09-25T03:04:36.903Z,70.68
2018-09-25T03:06:50.863Z,70.74
2018-09-25T03:09:01.052Z,71.05
2018-09-25T03:11:12.006Z,71.42
2018-09-25T03:13:23.089Z,71.31
2018-09-25T03:15:37.036Z,71.57
2018-09-25T03:17:48.340Z,71.79
2018-09-25T03:19:58.657Z,71.67
2018-09-25T03:22:08.880Z,71.57
2018-09-25T03:24:18.623Z,72.15
2018-09-25T03:26:28.403Z,72.30
2018-09-25T03:28:38.440Z,72.63
2018-09-25T03:30:48.352Z,72.72
2018-09-25T03:32:58.229Z,72.99
2018-09-25T03:35:08.383Z,73.09
2018-09-25T03:37:18.368Z,73.06
2018-09-25T03:39:28.400Z,72.77
2018-09-25T03:41:38.341Z,72.87
2018-09-25T03:43:48.202Z,73.32
2018-09-25T03:45:58.228Z,73.21
2018-09-25T03:48:08.201Z,73.18
2018-09-25T03:50:18.125Z,73.28
2018-09-25T03:52:27.974Z,73.62
2018-09-25T03:54:37.968Z,73.46
2018-09-25T03:56:47.840Z,73.40
2018-09-25T03:58:57.728Z,73.83
2018-09-25T04:01:08.508Z,73.77
2018-09-25T04:03:18.207Z,73.74
2018-09-25T04:05:28.066Z,73.51
2018-09-25T04:07:38.047Z,73.72
2018-09-25T04:09:47.964Z,73.35
2018-09-25T04:11:57.822Z,73.72
2018-09-25T04:14:07.969Z,73.79
2018-09-25T04:16:17.782Z,74.27
2018-09-25T04:18:27.701Z,74.28
2018-09-25T04:20:37.685Z,74.70
2018-09-25T04:22:47.721Z,74.85
2018-09-25T04:24:57.501Z,74.79
2018-09-25T04:27:07.309Z,74.58
2018-09-25T04:29:17.003Z,74.53
2018-09-25T04:31:26.946Z,74.76
2018-09-25T04:33:36.808Z,74.91
2018-09-25T04:35:46.582Z,74.89
2018-09-25T04:37:56.424Z,74.69
2018-09-25T04:40:08.273Z,74.84
2018-09-25T04:42:18.443Z,74.63
2018-09-25T04:44:29.652Z,74.89
2018-09-25T04:46:39.896Z,74.94
2018-09-25T04:48:50.074Z,75.33
2018-09-25T04:51:00.643Z,74.89
2018-09-25T04:53:10.583Z,74.80
2018-09-25T04:55:20.524Z,74.34
2018-09-25T04:57:30.312Z,74.43
2018-09-25T04:59:40.041Z,74.41
2018-09-25T05:01:50.084Z,74.73
2018-09-25T05:03:59.939Z,74.31
2018-09-25T05:06:09.750Z,74.47
2018-09-25T05:08:19.989Z,74.52
2018-09-25T05:10:30.147Z,74.95
2018-09-25T05:12:40.036Z,74.63
2018-09-25T05:14:49.957Z,74.54
2018-09-25T05:17:00.615Z,74.87
2018-09-25T05:19:10.785Z,74.74
2018-09-25T05:21:20.615Z,74.51
2018-09-25T05:23:30.647Z,74.59
2018-09-25T05:25:40.583Z,74.71
2018-09-25T05:27:50.542Z,74.61
2018-09-25T05:30:00.319Z,74.53
2018-09-25T05:32:10.133Z,74.63
2018-09-25T05:34:19.936Z,74.86
2018-09-25T05:36:29.627Z,74.67
2018-09-25T05:38:39.457Z,74.93
2018-09-25T05:40:49.507Z,75.15
2018-09-25T05:42:59.316Z,75.33
2018-09-25T05:45:09.414Z,75.36
2018-09-25T05:47:19.342Z,75.29
2018-09-25T05:49:29.184Z,75.45
2018-09-25T05:51:39.120Z,75.30
2018-09-25T05:53:49.121Z,75.37
2018-09-25T05:55:58.933Z,75.44
2018-09-25T05:58:09.808Z,75.62
2018-09-25T06:00:19.638Z,75.58
2018-09-25T06:02:29.306Z,75.33
2018-09-25T06:04:39.207Z,75.69
2018-09-25T06:06:49.371Z,75.45
2018-09-25T06:08:59.157Z,75.31
2018-09-25T06:11:08.933Z,75.54
2018-09-25T06:13:18.816Z,75.18
2018-09-25T06:15:28.749Z,75.30
2018-09-25T06:17:38.801Z,75.13
2018-09-25T06:19:48.808Z,74.99
2018-09-25T06:21:58.839Z,74.82
2018-09-25T06:24:08.844Z,74.96
2018-09-25T06:26:18.665Z,74.94
2018-09-25T06:28:28.612Z,74.84
2018-09-25T06:30:38.403Z,74.79
2018-09-25T06:32:48.301Z,74.82
2018-09-25T06:34:58.270Z,74.52
2018-09-25T06:37:08.101Z,74.62
2018-09-25T06:39:17.810Z,74.31
2018-09-25T06:41:27.651Z,74.41
2018-09-25T06:43:37.509Z,74.30
2018-09-25T06:45:47.328Z,74.29
2018-09-25T06:47:57.063Z,74.03
2018-09-25T06:50:06.775Z,73.81
2018-09-25T06:52:16.594Z,73.96
2018-09-25T06:54:26.459Z,73.54
2018-09-25T06:56:36.174Z,73.40
2018-09-25T06:58:45.866Z,73.68
2018-09-25T07:00:55.694Z,73.52
2018-09-25T07:03:05.398Z,73.23
2018-09-25T07:05:15.391Z,72.85
2018-09-25T07:07:25.378Z,72.93
2018-09-25T07:09:35.095Z,72.51
2018-09-25T07:11:45.030Z,72.40
2018-09-25T07:13:55.535Z,72.17
2018-09-25T07:16:05.348Z,72.68
2018-09-25T07:18:15.186Z,72.51
2018-09-25T07:20:25.049Z,72.77
2018-09-25T07:22:35.380Z,72.60
2018-09-25T07:24:45.171Z,72.68
2018-09-25T07:26:54.878Z,72.63
2018-09-25T07:29:04.590Z,72.34
2018-09-25T07:31:14.686Z,72.17
2018-09-25T07:33:24.468Z,72.05
2018-09-25T07:35:34.414Z,72.03
2018-09-25T07:37:44.184Z,72.04
2018-09-25T07:39:54.143Z,71.54
2018-09-25T07:42:04.148Z,71.67
2018-09-25T07:44:14.099Z,71.52
2018-09-25T07:46:23.870Z,71.50
2018-09-25T07:48:34.084Z,71.52
2018-09-25T07:50:43.921Z,70.80
2018-09-25T07:52:54.005Z,69.97
2018-09-25T07:55:04.341Z,69.81
2018-09-25T07:57:14.891Z,69.56
2018-09-25T07:59:25.093Z,69.71
2018-09-25T08:01:35.073Z,69.77
2018-09-25T08:03:45.059Z,69.74
2018-09-25T08:05:55.051Z,69.62
2018-09-25T08:08:05.557Z,69.33
2018-09-25T08:10:16.246Z,69.45
2018-09-25T08:12:26.381Z,69.05
2018-09-25T08:14:36.237Z,68.97
2018-09-25T08:16:46.221Z,68.58
2018-09-25T08:18:55.937Z,68.67
2018-09-25T08:21:05.683Z,68.51
2018-09-25T08:23:15.556Z,68.39
2018-09-25T08:25:25.679Z,68.65
2018-09-25T08:27:35.474Z,68.29
2018-09-25T08:29:45.520Z,68.39
2018-09-25T08:31:55.553Z,67.82
2018-09-25T08:34:05.463Z,67.85
2018-09-25T08:36:15.180Z,67.69
2018-09-25T08:38:25.118Z,67.45
2018-09-25T08:40:35.017Z,67.31
2018-09-25T08:42:44.767Z,66.97
2018-09-25T08:44:54.550Z,65.84
2018-09-25T08:47:04.414Z,66.10
2018-09-25T08:49:14.303Z,65.58
2018-09-25T08:51:24.193Z,65.46
2018-09-25T08:53:34.401Z,65.39
2018-09-25T08:55:44.196Z,65.20
2018-09-25T08:57:54.336Z,64.84
2018-09-25T09:00:04.199Z,64.03
2018-09-25T09:02:14.565Z,64.06
2018-09-25T09:04:24.893Z,63.28
2018-09-25T09:06:34.712Z,63.30
2018-09-25T09:08:46.895Z,63.07
2018-09-25T09:10:58.600Z,62.82
2018-09-25T09:13:08.538Z,62.37
2018-09-25T09:15:18.291Z,61.47
2018-09-25T09:17:28.147Z,61.79
2018-09-25T09:19:38.338Z,61.79
2018-09-25T09:21:48.155Z,61.22
2018-09-25T09:23:58.200Z,60.90
2018-09-25T09:26:07.994Z,61.17
2018-09-25T09:28:17.714Z,60.68
2018-09-25T09:30:27.479Z,60.23
2018-09-25T09:32:37.955Z,60.01
2018-09-25T09:34:47.736Z,59.88
2018-09-25T09:36:57.499Z,59.79
2018-09-25T09:39:07.274Z,59.11
2018-09-25T09:41:17.044Z,58.78
2018-09-25T09:43:26.861Z,58.35
2018-09-25T09:45:36.582Z,58.28
2018-09-25T09:47:46.339Z,58.18
2018-09-25T09:49:56.248Z,58.18
2018-09-25T09:52:06.040Z,57.24
2018-09-25T09:54:16.004Z,57.51
2018-09-25T09:56:26.019Z,57.20
2018-09-25T09:58:35.736Z,56.79
2018-09-25T10:00:45.457Z,56.60
2018-09-25T10:02:55.242Z,54.46
2018-09-25T10:05:04.954Z,54.72
2018-09-25T10:07:14.841Z,54.96
2018-09-25T10:09:24.635Z,54.92
2018-09-25T10:11:34.494Z,54.55
2018-09-25T10:13:44.276Z,53.42
2018-09-25T10:15:54.348Z,52.96
2018-09-25T10:18:04.191Z,53.50
2018-09-25T10:20:13.977Z,52.79
2018-09-25T10:22:23.737Z,52.55
2018-09-25T10:24:33.654Z,51.92
2018-09-25T10:26:43.442Z,51.49
2018-09-25T10:28:53.178Z,51.73
2018-09-25T10:31:02.899Z,52.06
2018-09-25T10:33:13.154Z,51.82
2018-09-25T10:35:22.976Z,49.95
2018-09-25T10:37:33.139Z,49.63
2018-09-25T10:39:43.168Z,49.01
2018-09-25T10:41:53.238Z,49.32
2018-09-25T10:44:03.343Z,49.25
2018-09-25T10:46:13.349Z,49.26
2018-09-25T10:48:23.165Z,48.82
2018-09-25T10:50:33.130Z,48.46
2018-09-25T10:52:42.852Z,48.14
2018-09-25T10:54:52.718Z,47.58
2018-09-25T10:57:02.824Z,47.86
2018-09-25T10:59:12.751Z,48.35
2018-09-25T11:01:22.814Z,47.75
2018-09-25T11:03:32.721Z,47.66
2018-09-25T11:05:42.687Z,46.35
2018-09-25T11:07:52.545Z,46.50
2018-09-25T11:10:02.520Z,48.02
2018-09-25T11:12:12.402Z,48.41
2018-09-25T11:14:22.427Z,48.26
2018-09-25T11:16:32.360Z,48.09
2018-09-25T11:18:42.256Z,48.42
2018-09-25T11:20:52.298Z,47.91
2018-09-25T11:23:02.308Z,48.70
2018-09-25T11:25:12.171Z,49.10
2018-09-25T11:27:22.126Z,48.80
2018-09-25T11:29:32.073Z,48.53
2018-09-25T11:31:41.812Z,48.32
2018-09-25T11:33:52.500Z,48.86
2018-09-25T11:36:02.436Z,48.91
2018-09-25T11:38:12.335Z,47.74
2018-09-25T11:40:22.045Z,47.80
2018-09-25T11:42:31.878Z,47.58
2018-09-25T11:44:41.711Z,47.54
2018-09-25T11:46:51.645Z,47.52
2018-09-25T11:49:01.545Z,47.61
2018-09-25T11:51:11.970Z,47.78
2018-09-25T11:53:21.884Z,47.24
2018-09-25T11:55:31.792Z,47.23
2018-09-25T11:57:41.972Z,47.23
2018-09-25T11:59:51.917Z,46.96
2018-09-25T12:02:01.913Z,47.07
2018-09-25T12:04:11.719Z,46.92
2018-09-25T12:06:21.629Z,46.94
2018-09-25T12:08:31.406Z,47.13
2018-09-25T12:10:41.342Z,47.01
2018-09-25T12:12:51.133Z,47.08
2018-09-25T12:15:00.906Z,46.77
2018-09-25T12:17:10.705Z,46.76
2018-09-25T12:19:20.586Z,45.81
2018-09-25T12:21:30.567Z,46.07
2018-09-25T12:23:40.370Z,46.00
2018-09-25T12:25:50.359Z,46.14
2018-09-25T12:28:00.462Z,46.94
2018-09-25T12:30:10.758Z,45.82
2018-09-25T12:32:20.817Z,45.55
2018-09-25T12:34:30.822Z,45.55
2018-09-25T12:36:40.706Z,45.76
2018-09-25T12:38:50.646Z,45.76
2018-09-25T12:41:00.617Z,46.01
2018-09-25T12:43:10.332Z,44.90
2018-09-25T12:45:20.102Z,44.73
2018-09-25T12:47:29.761Z,44.40
2018-09-25T12:49:39.738Z,43.21
2018-09-25T12:51:49.750Z,43.83
2018-09-25T12:53:59.745Z,43.23
2018-09-25T12:56:09.473Z,42.56
2018-09-25T12:58:19.393Z,43.27
2018-09-25T13:00:29.204Z,42.53
2018-09-25T13:02:39.067Z,42.95
2018-09-25T13:04:48.969Z,42.48
2018-09-25T13:06:58.770Z,42.70
2018-09-25T13:09:08.546Z,42.39
2018-09-25T13:11:18.281Z,42.53
2018-09-25T13:13:27.906Z,42.68
2018-09-25T13:15:37.583Z,42.12
2018-09-25T13:17:47.495Z,41.55
2018-09-25T13:19:59.547Z,41.21
2018-09-25T13:22:09.484Z,41.86
2018-09-25T13:24:19.636Z,41.91
2018-09-25T13:26:29.613Z,41.86
2018-09-25T13:28:40.774Z,42.41
2018-09-25T13:30:50.856Z,42.79
2018-09-25T13:33:00.631Z,42.82
2018-09-25T13:35:17.935Z,41.23
2018-09-25T13:37:28.613Z,41.55
2018-09-25T13:39:38.543Z,42.60
2018-09-25T13:41:49.799Z,42.96
2018-09-25T13:43:59.993Z,42.36
2018-09-25T13:46:09.881Z,41.63
2018-09-25T13:48:19.836Z,42.47
2018-09-25T13:50:29.878Z,41.62
2018-09-25T13:52:39.577Z,42.27
2018-09-25T13:54:49.456Z,42.08
2018-09-25T13:56:59.431Z,42.24
2018-09-25T13:59:09.466Z,42.75
2018-09-25T14:01:19.398Z,43.36
2018-09-25T14:03:29.495Z,43.26
2018-09-25T14:05:39.520Z,43.42
2018-09-25T14:07:49.373Z,43.16
2018-09-25T14:09:59.315Z,43.30
2018-09-25T14:12:09.270Z,42.29
2018-09-25T14:14:19.217Z,42.65
2018-09-25T14:16:29.151Z,43.30
2018-09-25T14:18:39.115Z,43.45
2018-09-25T14:20:48.771Z,43.06
2018-09-25T14:22:58.602Z,42.48
2018-09-25T14:25:08.540Z,42.45
2018-09-25T14:27:18.419Z,42.27
2018-09-25T14:29:28.540Z,42.67
2018-09-25T14:31:38.426Z,42.64
2018-09-25T14:33:48.304Z,42.96
2018-09-25T14:35:58.196Z,42.54
2018-09-25T14:38:08.137Z,41.98
2018-09-25T14:40:18.152Z,42.51
2018-09-25T14:42:28.128Z,42.26
2018-09-25T14:44:38.162Z,42.66
2018-09-25T14:46:48.048Z,42.69
2018-09-25T14:48:57.893Z,43.07
2018-09-25T14:51:07.676Z,42.84
2018-09-25T14:53:17.374Z,43.19
2018-09-25T14:55:27.376Z,43.29
2018-09-25T14:57:37.444Z,43.85
2018-09-25T14:59:47.596Z,43.93
2018-09-25T15:01:57.849Z,44.10
2018-09-25T15:04:07.872Z,43.96
2018-09-25T15:06:17.925Z,44.19
2018-09-25T15:08:27.730Z,44.35
2018-09-25T15:10:37.650Z,44.07
2018-09-25T15:12:47.617Z,43.61
2018-09-25T15:14:57.727Z,43.66
2018-09-25T15:17:07.609Z,44.00
2018-09-25T15:19:17.573Z,44.13
2018-09-25T15:21:27.666Z,43.88
2018-09-25T15:23:37.572Z,43.46
2018-09-25T15:25:47.454Z,43.81
2018-09-25T15:27:57.356Z,44.01
2018-09-25T15:30:07.241Z,43.40
2018-09-25T15:32:17.238Z,43.56
2018-09-25T15:34:27.295Z,43.34
2018-09-25T15:36:37.296Z,43.12
2018-09-25T15:38:47.223Z,43.72
2018-09-25T15:40:57.145Z,43.10
2018-09-25T15:43:07.209Z,43.40
2018-09-25T15:45:17.196Z,43.38
2018-09-25T15:47:27.092Z,42.79
2018-09-25T15:49:37.050Z,42.66
2018-09-25T15:51:46.939Z,42.45
2018-09-25T15:53:57.176Z,42.26
2018-09-25T15:56:07.377Z,42.20
2018-09-25T15:58:17.487Z,42.22
2018-09-25T16:00:28.264Z,42.38
2018-09-25T16:02:38.158Z,42.17
2018-09-25T16:04:48.253Z,42.66
2018-09-25T16:06:58.537Z,43.16
2018-09-25T16:09:08.481Z,43.60
2018-09-25T16:11:18.615Z,43.25
2018-09-25T16:13:28.546Z,43.28
2018-09-25T16:15:38.805Z,43.30
2018-09-25T16:17:48.568Z,43.18
2018-09-25T16:19:58.671Z,43.04
2018-09-25T16:22:08.559Z,43.68
2018-09-25T16:24:18.304Z,44.21
2018-09-25T16:26:28.377Z,43.10
2018-09-25T16:28:38.241Z,42.44
2018-09-25T16:30:53.078Z,42.70
2018-09-25T16:33:03.053Z,42.64
2018-09-25T16:35:13.067Z,43.41
2018-09-25T16:37:23.112Z,43.43
2018-09-25T16:39:33.169Z,43.35
2018-09-25T16:41:43.085Z,43.93
2018-09-25T16:43:52.910Z,43.69
2018-09-25T16:46:02.950Z,44.11
2018-09-25T16:48:13.243Z,43.72
2018-09-25T16:50:23.185Z,44.12
2018-09-25T16:52:33.329Z,44.42
2018-09-25T16:54:43.211Z,45.08
2018-09-25T16:56:53.126Z,45.05
2018-09-25T16:59:03.054Z,45.01
2018-09-25T17:01:12.825Z,45.85
2018-09-25T17:03:23.085Z,45.67
2018-09-25T17:05:33.256Z,45.93
2018-09-25T17:07:43.193Z,45.85
2018-09-25T17:09:53.171Z,46.33
2018-09-25T17:12:03.327Z,46.07
2018-09-25T17:14:13.362Z,46.43
2018-09-25T17:16:23.593Z,47.04
2018-09-25T17:18:33.987Z,47.40
2018-09-25T17:20:44.090Z,47.42
2018-09-25T17:22:53.809Z,47.59
2018-09-25T17:25:03.867Z,47.61
2018-09-25T17:27:13.746Z,48.19
2018-09-25T17:29:23.835Z,48.24
2018-09-25T17:31:33.899Z,48.95
2018-09-25T17:33:43.808Z,49.03
2018-09-25T17:35:53.839Z,49.06
2018-09-25T17:38:03.717Z,50.14
2018-09-25T17:40:13.576Z,51.10
2018-09-25T17:42:23.383Z,50.79
2018-09-25T17:44:33.495Z,50.66
2018-09-25T17:46:43.521Z,50.69
2018-09-25T17:48:53.287Z,50.74
2018-09-25T17:51:03.531Z,51.11
2018-09-25T17:53:13.560Z,51.00
2018-09-25T17:55:23.400Z,51.19
2018-09-25T17:57:33.222Z,51.40
2018-09-25T17:59:43.263Z,51.79
2018-09-25T18:01:53.631Z,52.49
2018-09-25T18:04:04.419Z,52.65
2018-09-25T18:06:14.849Z,53.13
2018-09-25T18:08:25.125Z,53.55
2018-09-25T18:10:35.558Z,53.88
2018-09-25T18:12:45.602Z,54.21
2018-09-25T18:14:55.780Z,54.59
2018-09-25T18:17:06.076Z,54.43
2018-09-25T18:19:16.613Z,54.69
2018-09-25T18:21:26.925Z,54.96
2018-09-25T18:23:37.084Z,55.07
2018-09-25T18:25:47.162Z,55.09
2018-09-25T18:27:57.424Z,55.33
2018-09-25T18:30:07.295Z,55.45
2018-09-25T18:32:17.408Z,55.89
2018-09-25T18:34:27.637Z,56.15
2018-09-25T18:36:37.737Z,56.39
2018-09-25T18:38:47.828Z,56.54
2018-09-25T18:40:57.955Z,56.74
2018-09-25T18:43:07.934Z,57.17
2018-09-25T18:45:20.130Z,57.05
2018-09-25T18:47:30.293Z,57.09
2018-09-25T18:49:40.307Z,57.30
2018-09-25T18:51:50.457Z,57.67
2018-09-25T18:54:00.957Z,57.86
2018-09-25T18:56:10.829Z,58.06
2018-09-25T18:58:21.141Z,58.03
2018-09-25T19:00:31.368Z,58.25
2018-09-25T19:02:41.796Z,58.48
2018-09-25T19:04:51.983Z,58.65
2018-09-25T19:07:01.836Z,58.73
2018-09-25T19:09:14.573Z,59.24
2018-09-25T19:11:24.425Z,59.70
2018-09-25T19:13:34.703Z,60.28
2018-09-25T19:15:45.399Z,60.18
2018-09-25T19:17:55.503Z,60.26
2018-09-25T19:20:05.449Z,60.45
2018-09-25T19:22:22.782Z,60.77
2018-09-25T19:24:32.747Z,61.07
2018-09-25T19:26:42.850Z,61.35
2018-09-25T19:28:53.635Z,61.50
2018-09-25T19:31:06.019Z,61.73
2018-09-25T19:33:19.136Z,61.63
2018-09-25T19:35:32.278Z,61.77
2018-09-25T19:37:45.454Z,61.75
2018-09-25T19:39:57.793Z,61.99
2018-09-25T19:42:08.696Z,62.48
2018-09-25T19:44:22.001Z,62.39
2018-09-25T19:46:33.518Z,62.54
2018-09-25T19:48:44.581Z,62.87
2018-09-25T19:50:58.156Z,63.12
2018-09-25T19:53:09.610Z,63.31
2018-09-25T19:55:22.006Z,63.44
2018-09-25T19:57:32.267Z,63.65
2018-09-25T19:59:42.882Z,64.04
2018-09-25T20:01:53.942Z,64.02
2018-09-25T20:04:04.886Z,64.01
2018-09-25T20:06:15.105Z,63.99
2018-09-25T20:08:26.480Z,64.15
2018-09-25T20:10:36.916Z,64.25
2018-09-25T20:12:47.087Z,64.28
2018-09-25T20:14:57.502Z,64.17
2018-09-25T20:17:10.239Z,64.25
2018-09-25T20:19:20.929Z,63.88
2018-09-25T20:21:31.058Z,63.67
2018-09-25T20:23:41.322Z,63.83
2018-09-25T20:25:52.075Z,63.76
2018-09-25T20:28:02.897Z,63.86
2018-09-25T20:30:13.827Z,64.06
2018-09-25T20:32:24.113Z,64.08
2018-09-25T20:34:34.575Z,64.17
2018-09-25T20:36:46.900Z,63.68
2018-09-25T20:38:56.817Z,63.52
2018-09-25T20:41:06.958Z,63.56
2018-09-25T20:43:16.709Z,63.57
2018-09-25T20:45:26.788Z,63.62
2018-09-25T20:47:36.836Z,63.55
2018-09-25T20:49:46.694Z,63.71
2018-09-25T20:51:56.715Z,63.60
2018-09-25T20:54:06.745Z,64.03
2018-09-25T20:56:16.722Z,63.85
2018-09-25T20:58:26.989Z,64.14
2018-09-25T21:00:37.177Z,63.95
2018-09-25T21:02:47.442Z,64.04
2018-09-25T21:04:57.549Z,64.05
2018-09-25T21:07:07.697Z,64.08
2018-09-25T21:09:17.887Z,64.40
2018-09-25T21:11:27.950Z,64.15
2018-09-25T21:13:37.816Z,64.75
2018-09-25T21:15:47.980Z,64.59
2018-09-25T21:17:58.281Z,64.41
2018-09-25T21:20:08.580Z,64.97
2018-09-25T21:22:19.042Z,64.84
2018-09-25T21:24:29.012Z,65.00
2018-09-25T21:26:39.208Z,64.77
2018-09-25T21:28:49.390Z,64.66
2018-09-25T21:30:59.842Z,64.85
2018-09-25T21:33:10.268Z,65.07
2018-09-25T21:35:20.603Z,64.90
2018-09-25T21:37:30.743Z,65.01
2018-09-25T21:39:40.718Z,65.16
2018-09-25T21:41:50.611Z,65.24
2018-09-25T21:44:00.564Z,65.52
2018-09-25T21:46:10.547Z,66.06
2018-09-25T21:48:20.805Z,65.98
2018-09-25T21:50:30.619Z,66.37
2018-09-25T21:52:40.672Z,66.47
2018-09-25T21:54:50.620Z,66.64
2018-09-25T21:57:00.626Z,66.69
2018-09-25T21:59:10.573Z,66.72
2018-09-25T22:01:20.463Z,66.58
2018-09-25T22:03:30.502Z,66.50
2018-09-25T22:05:40.523Z,66.56
2018-09-25T22:07:50.353Z,66.46
2018-09-25T22:10:00.420Z,66.48
2018-09-25T22:12:10.324Z,66.30
2018-09-25T22:14:20.511Z,66.30
2018-09-25T22:16:30.375Z,66.48
2018-09-25T22:18:40.271Z,66.81
2018-09-25T22:20:49.997Z,66.76
2018-09-25T22:22:59.702Z,66.73
2018-09-25T22:25:09.665Z,66.74
2018-09-25T22:27:19.955Z,66.85
2018-09-25T22:29:29.809Z,66.38
2018-09-25T22:31:39.880Z,66.03
2018-09-25T22:33:49.650Z,66.40
2018-09-25T22:35:59.683Z,66.85
2018-09-25T22:38:09.824Z,66.13
2018-09-25T22:40:19.637Z,66.33
2018-09-25T22:42:29.877Z,66.25
2018-09-25T22:44:39.830Z,66.38
2018-09-25T22:46:49.806Z,66.30
2018-09-25T22:48:59.754Z,66.37
2018-09-25T22:51:09.556Z,66.11
2018-09-25T22:53:19.310Z,66.15
2018-09-25T22:55:29.202Z,65.82
2018-09-25T22:57:39.059Z,65.74
2018-09-25T22:59:48.846Z,65.73
2018-09-25T23:01:58.632Z,65.97
2018-09-25T23:04:08.687Z,66.09
2018-09-25T23:06:18.597Z,65.41
2018-09-25T23:08:28.327Z,65.04
2018-09-25T23:10:38.086Z,65.41
2018-09-25T23:12:48.088Z,65.29
2018-09-25T23:14:57.774Z,65.25
2018-09-25T23:17:07.842Z,65.05
2018-09-25T23:19:17.620Z,65.04
2018-09-25T23:21:27.536Z,65.10
2018-09-25T23:23:37.341Z,65.33
2018-09-25T23:25:47.255Z,64.73
2018-09-25T23:27:57.024Z,64.66
2018-09-25T23:30:06.978Z,64.78
2018-09-25T23:32:16.939Z,64.39
2018-09-25T23:34:26.773Z,64.30
2018-09-25T23:36:36.764Z,64.37
2018-09-25T23:38:46.733Z,64.71
2018-09-25T23:40:58.574Z,64.32
2018-09-25T23:45:10.827Z,64.35
2018-09-25T23:47:27.855Z,64.31
2018-09-25T23:49:36.707Z,64.75
2018-09-25T23:53:49.603Z,64.47
2018-09-25T23:56:00.562Z,64.80
2018-09-25T23:58:09.234Z,64.92
